Terminal Aerodrome Forecast
Issued by NWS

Home | Current Version | Previous Version | Text Only | Print | Product List | Glossary On
Versions: 1 2 3 4 5 6 7 8 9 10 11 12 13 14 15
000
FTUS42 TJSJ 211100
TAFNCM
TAF
TNCM 211137Z 2112/2212 08010KT P6SM FEW019
     FM211600 10012KT P6SM SCT022
     FM212200 08011KT P6SM VCSH SCT018=

USA.gov is the U.S. government's official web portal to all federal, state and local government web resources and services.